RYR66DT EIDW-LFRS
Flight info
| Callsign | RYR66DT |
|---|---|
| Flight time | 1h 13m |
| Altitude | 37000 |
| Route | PESIT4E PESIT DCT BAKUR DCT GUBJE DCT GISOK DCT TACQI DCT MANIG DCT BADUR DCT KORER UN482 GODAN |
| Aircraft | B738/M-SDE2E3FGHIRWXY/LB1 |
Departure
| Time | 2026-05-04 12:45 |
|---|---|
| Airport | Dublin Airport (EIDW) |
Arrival
| Time | 2026-05-04 13:58 |
|---|---|
| Airport | Nantes Atlantique Airport (LFRS) |
| Time | Latitude | Longitude | Altitude | Speed | Heading |
|---|---|---|---|---|---|
| 2026-05-04 11:44 | 53.43004 | -6.24878 | 213 ft | 0 kts | 5° |
| 2026-05-04 12:34 | 53.42998 | -6.24879 | 216 ft | 2 kts | 5° |
| 2026-05-04 12:34 | 53.42981 | -6.24878 | 210 ft | 2 kts | 341° |
| 2026-05-04 12:34 | 53.42965 | -6.24865 | 213 ft | 3 kts | 304° |
| 2026-05-04 12:34 | 53.42955 | -6.24840 | 221 ft | 2 kts | 309° |
| 2026-05-04 12:35 | 53.42945 | -6.24815 | 210 ft | 3 kts | 289° |
| 2026-05-04 12:35 | 53.42940 | -6.24782 | 220 ft | 3 kts | 275° |
| 2026-05-04 12:35 | 53.42939 | -6.24753 | 214 ft | 1 kts | 275° |
| 2026-05-04 12:35 | 53.42939 | -6.24749 | 214 ft | 0 kts | 275° |
| 2026-05-04 12:38 | 53.42940 | -6.24772 | 218 ft | 6 kts | 275° |
| 2026-05-04 12:38 | 53.42923 | -6.24860 | 216 ft | 9 kts | 228° |
| 2026-05-04 12:39 | 53.42871 | -6.24955 | 210 ft | 13 kts | 227° |
| 2026-05-04 12:39 | 53.42798 | -6.25058 | 215 ft | 14 kts | 214° |
| 2026-05-04 12:39 | 53.42732 | -6.25166 | 210 ft | 13 kts | 226° |
| 2026-05-04 12:39 | 53.42670 | -6.25273 | 210 ft | 13 kts | 226° |
| 2026-05-04 12:40 | 53.42607 | -6.25380 | 216 ft | 14 kts | 225° |
| 2026-05-04 12:40 | 53.42537 | -6.25498 | 210 ft | 15 kts | 225° |
| 2026-05-04 12:40 | 53.42461 | -6.25629 | 210 ft | 17 kts | 226° |
| 2026-05-04 12:40 | 53.42375 | -6.25777 | 213 ft | 18 kts | 225° |
| 2026-05-04 12:41 | 53.42289 | -6.25926 | 210 ft | 17 kts | 232° |
| 2026-05-04 12:41 | 53.42257 | -6.26115 | 210 ft | 18 kts | 273° |
| 2026-05-04 12:41 | 53.42269 | -6.26333 | 210 ft | 20 kts | 275° |
| 2026-05-04 12:41 | 53.42282 | -6.26568 | 212 ft | 21 kts | 275° |
| 2026-05-04 12:42 | 53.42295 | -6.26816 | 210 ft | 21 kts | 275° |
| 2026-05-04 12:42 | 53.42309 | -6.27059 | 220 ft | 21 kts | 275° |
| 2026-05-04 12:42 | 53.42322 | -6.27294 | 215 ft | 20 kts | 275° |
| 2026-05-04 12:42 | 53.42335 | -6.27523 | 210 ft | 19 kts | 275° |
| 2026-05-04 12:43 | 53.42347 | -6.27743 | 212 ft | 19 kts | 275° |
| 2026-05-04 12:43 | 53.42359 | -6.27958 | 210 ft | 18 kts | 275° |
| 2026-05-04 12:43 | 53.42369 | -6.28164 | 210 ft | 17 kts | 275° |
| 2026-05-04 12:43 | 53.42346 | -6.28316 | 210 ft | 14 kts | 204° |
| 2026-05-04 12:44 | 53.42265 | -6.28279 | 214 ft | 13 kts | 139° |
| 2026-05-04 12:44 | 53.42200 | -6.28173 | 211 ft | 16 kts | 115° |
| 2026-05-04 12:44 | 53.42178 | -6.27848 | 210 ft | 57 kts | 95° |
| 2026-05-04 12:44 | 53.42119 | -6.26761 | 210 ft | 128 kts | 95° |
| 2026-05-04 12:45 | 53.42018 | -6.25023 | 539 ft | 157 kts | 94° |
| 2026-05-04 12:45 | 53.41914 | -6.23198 | 1384 ft | 156 kts | 94° |
| 2026-05-04 12:45 | 53.41810 | -6.21332 | 2107 ft | 168 kts | 92° |
| 2026-05-04 12:45 | 53.41694 | -6.19166 | 2429 ft | 203 kts | 93° |
| 2026-05-04 12:46 | 53.41562 | -6.16734 | 3017 ft | 213 kts | 92° |
| 2026-05-04 12:46 | 53.41424 | -6.14212 | 3687 ft | 226 kts | 92° |
| 2026-05-04 12:46 | 53.41272 | -6.11416 | 4049 ft | 254 kts | 94° |
| 2026-05-04 12:46 | 53.41106 | -6.08409 | 4868 ft | 262 kts | 94° |
| 2026-05-04 12:47 | 53.40934 | -6.05348 | 5783 ft | 266 kts | 95° |
| 2026-05-04 12:47 | 53.40376 | -6.02372 | 6609 ft | 274 kts | 124° |
| 2026-05-04 12:47 | 53.38975 | -6.00239 | 7494 ft | 276 kts | 153° |
| 2026-05-04 12:47 | 53.37126 | -5.99397 | 8344 ft | 280 kts | 178° |
| 2026-05-04 12:48 | 53.35172 | -5.99677 | 9164 ft | 286 kts | 190° |
| 2026-05-04 12:48 | 53.33194 | -6.00304 | 9988 ft | 292 kts | 191° |
| 2026-05-04 12:48 | 53.31143 | -6.00479 | 10569 ft | 305 kts | 174° |
| 2026-05-04 12:48 | 53.28959 | -5.99901 | 10769 ft | 331 kts | 169° |
| 2026-05-04 12:49 | 53.26620 | -5.99162 | 11135 ft | 349 kts | 169° |
| 2026-05-04 12:49 | 53.24203 | -5.98400 | 11806 ft | 357 kts | 169° |
| 2026-05-04 12:49 | 53.21752 | -5.97653 | 12561 ft | 361 kts | 169° |
| 2026-05-04 12:49 | 53.19265 | -5.96923 | 13378 ft | 365 kts | 170° |
| 2026-05-04 12:50 | 53.16741 | -5.96205 | 14088 ft | 370 kts | 170° |
| 2026-05-04 12:50 | 53.14191 | -5.95495 | 14840 ft | 372 kts | 170° |
| 2026-05-04 12:50 | 53.11629 | -5.94791 | 15554 ft | 376 kts | 170° |
| 2026-05-04 12:50 | 53.09038 | -5.94085 | 16286 ft | 378 kts | 170° |
| 2026-05-04 12:51 | 53.06434 | -5.93379 | 17017 ft | 381 kts | 169° |
| 2026-05-04 12:51 | 53.03801 | -5.92667 | 17685 ft | 385 kts | 169° |
| 2026-05-04 12:51 | 53.01136 | -5.91947 | 18347 ft | 390 kts | 168° |
| 2026-05-04 12:51 | 52.98447 | -5.91222 | 18936 ft | 393 kts | 169° |
| 2026-05-04 12:52 | 52.95736 | -5.90492 | 19526 ft | 396 kts | 169° |
| 2026-05-04 12:52 | 52.93007 | -5.89758 | 20094 ft | 400 kts | 169° |
| 2026-05-04 12:52 | 52.90244 | -5.89017 | 20643 ft | 404 kts | 169° |
| 2026-05-04 12:52 | 52.87452 | -5.88268 | 21194 ft | 408 kts | 168° |
| 2026-05-04 12:53 | 52.84641 | -5.87515 | 21762 ft | 411 kts | 168° |
| 2026-05-04 12:53 | 52.81802 | -5.86756 | 22317 ft | 415 kts | 168° |
| 2026-05-04 12:53 | 52.78945 | -5.85992 | 22827 ft | 419 kts | 167° |
| 2026-05-04 12:53 | 52.76054 | -5.85220 | 23322 ft | 423 kts | 167° |
| 2026-05-04 12:54 | 52.73136 | -5.84442 | 23791 ft | 427 kts | 167° |
| 2026-05-04 12:54 | 52.70198 | -5.83660 | 24227 ft | 430 kts | 167° |
| 2026-05-04 12:54 | 52.67238 | -5.82874 | 24646 ft | 432 kts | 167° |
| 2026-05-04 12:54 | 52.64260 | -5.82085 | 25058 ft | 436 kts | 167° |
| 2026-05-04 12:55 | 52.61251 | -5.81288 | 25479 ft | 439 kts | 166° |
| 2026-05-04 12:55 | 52.58230 | -5.80489 | 25880 ft | 442 kts | 166° |
| 2026-05-04 12:55 | 52.55183 | -5.79684 | 26289 ft | 445 kts | 166° |
| 2026-05-04 12:55 | 52.52124 | -5.78877 | 26666 ft | 447 kts | 166° |
| 2026-05-04 12:56 | 52.49033 | -5.78063 | 27041 ft | 450 kts | 166° |
| 2026-05-04 12:56 | 52.45935 | -5.77248 | 27412 ft | 453 kts | 166° |
| 2026-05-04 12:56 | 52.42811 | -5.76427 | 27772 ft | 456 kts | 166° |
| 2026-05-04 12:56 | 52.39678 | -5.75574 | 28127 ft | 457 kts | 163° |
| 2026-05-04 12:57 | 52.36604 | -5.74282 | 28540 ft | 454 kts | 157° |
| 2026-05-04 12:57 | 52.33636 | -5.72759 | 28973 ft | 453 kts | 156° |
| 2026-05-04 12:57 | 52.30618 | -5.71187 | 29321 ft | 456 kts | 156° |
| 2026-05-04 12:57 | 52.27572 | -5.69661 | 29603 ft | 460 kts | 157° |
| 2026-05-04 12:58 | 52.24495 | -5.68162 | 29897 ft | 463 kts | 157° |
| 2026-05-04 12:58 | 52.21465 | -5.66440 | 30195 ft | 461 kts | 152° |
| 2026-05-04 12:58 | 52.18502 | -5.64437 | 30557 ft | 458 kts | 150° |
| 2026-05-04 12:58 | 52.15619 | -5.62361 | 30992 ft | 454 kts | 148° |
| 2026-05-04 12:59 | 52.12904 | -5.59833 | 31461 ft | 446 kts | 142° |
| 2026-05-04 12:59 | 52.10315 | -5.57085 | 31849 ft | 444 kts | 141° |
| 2026-05-04 12:59 | 52.07748 | -5.54291 | 32154 ft | 444 kts | 141° |
| 2026-05-04 12:59 | 52.05177 | -5.51486 | 32457 ft | 445 kts | 141° |
| 2026-05-04 13:00 | 52.02603 | -5.48702 | 32811 ft | 444 kts | 141° |
| 2026-05-04 13:00 | 52.00027 | -5.45945 | 33185 ft | 443 kts | 142° |
| 2026-05-04 13:00 | 51.97453 | -5.43215 | 33515 ft | 443 kts | 142° |
| 2026-05-04 13:00 | 51.94861 | -5.40484 | 33855 ft | 443 kts | 142° |
| 2026-05-04 13:01 | 51.92271 | -5.37766 | 34203 ft | 443 kts | 142° |
| 2026-05-04 13:01 | 51.89686 | -5.35061 | 34496 ft | 443 kts | 143° |
| 2026-05-04 13:01 | 51.87092 | -5.32352 | 34725 ft | 444 kts | 144° |
| 2026-05-04 13:01 | 51.84499 | -5.29647 | 34963 ft | 445 kts | 144° |
| 2026-05-04 13:02 | 51.81903 | -5.26943 | 35224 ft | 444 kts | 144° |
| 2026-05-04 13:02 | 51.79300 | -5.24235 | 35461 ft | 444 kts | 144° |
| 2026-05-04 13:02 | 51.76697 | -5.21530 | 35673 ft | 445 kts | 144° |
| 2026-05-04 13:02 | 51.74093 | -5.18828 | 35902 ft | 445 kts | 144° |
| 2026-05-04 13:03 | 51.71490 | -5.16130 | 36159 ft | 445 kts | 145° |
| 2026-05-04 13:03 | 51.68881 | -5.13430 | 36380 ft | 446 kts | 145° |
| 2026-05-04 13:03 | 51.66306 | -5.10769 | 36613 ft | 446 kts | 145° |
| 2026-05-04 13:03 | 51.63655 | -5.08032 | 36857 ft | 445 kts | 146° |
| 2026-05-04 13:04 | 51.61046 | -5.05343 | 37027 ft | 446 kts | 146° |
| 2026-05-04 13:04 | 51.55786 | -4.99933 | 37033 ft | 449 kts | 146° |
| 2026-05-04 13:05 | 51.50580 | -4.94595 | 37030 ft | 445 kts | 146° |
| 2026-05-04 13:05 | 51.45380 | -4.89277 | 37041 ft | 442 kts | 146° |
| 2026-05-04 13:06 | 51.40207 | -4.84000 | 37030 ft | 440 kts | 146° |
| 2026-05-04 13:06 | 51.35037 | -4.78740 | 37029 ft | 440 kts | 146° |
| 2026-05-04 13:07 | 51.29875 | -4.73503 | 37027 ft | 439 kts | 146° |
| 2026-05-04 13:07 | 51.24704 | -4.68271 | 37026 ft | 441 kts | 146° |
| 2026-05-04 13:08 | 51.19513 | -4.63032 | 37025 ft | 442 kts | 147° |
| 2026-05-04 13:08 | 51.14308 | -4.57794 | 37023 ft | 443 kts | 147° |
| 2026-05-04 13:09 | 51.09085 | -4.52552 | 37028 ft | 445 kts | 147° |
| 2026-05-04 13:09 | 51.03828 | -4.47290 | 37012 ft | 448 kts | 147° |
| 2026-05-04 13:10 | 50.98552 | -4.42024 | 37008 ft | 448 kts | 147° |
| 2026-05-04 13:10 | 50.93277 | -4.36773 | 37007 ft | 448 kts | 147° |
| 2026-05-04 13:11 | 50.87994 | -4.31529 | 37001 ft | 447 kts | 147° |
| 2026-05-04 13:11 | 50.82762 | -4.26349 | 36999 ft | 446 kts | 147° |
| 2026-05-04 13:12 | 50.77500 | -4.21153 | 36991 ft | 446 kts | 147° |
| 2026-05-04 13:12 | 50.72250 | -4.15983 | 36997 ft | 445 kts | 147° |
| 2026-05-04 13:13 | 50.67002 | -4.10828 | 37001 ft | 444 kts | 147° |
| 2026-05-04 13:13 | 50.61752 | -4.05686 | 37003 ft | 444 kts | 147° |
| 2026-05-04 13:14 | 50.56516 | -4.00571 | 37007 ft | 444 kts | 148° |
| 2026-05-04 13:14 | 50.51308 | -3.95496 | 37008 ft | 444 kts | 148° |
| 2026-05-04 13:15 | 50.46032 | -3.90369 | 37003 ft | 444 kts | 148° |
| 2026-05-04 13:15 | 50.40787 | -3.85284 | 37014 ft | 444 kts | 148° |
| 2026-05-04 13:16 | 50.35534 | -3.80207 | 37023 ft | 444 kts | 148° |
| 2026-05-04 13:16 | 50.30275 | -3.75137 | 37011 ft | 444 kts | 148° |
| 2026-05-04 13:17 | 50.25004 | -3.70068 | 37013 ft | 445 kts | 148° |
| 2026-05-04 13:17 | 50.19730 | -3.65009 | 37011 ft | 445 kts | 149° |
| 2026-05-04 13:18 | 50.14449 | -3.59957 | 37013 ft | 445 kts | 149° |
| 2026-05-04 13:18 | 50.09210 | -3.54959 | 37020 ft | 445 kts | 149° |
| 2026-05-04 13:19 | 50.03935 | -3.49950 | 37015 ft | 444 kts | 151° |
| 2026-05-04 13:19 | 49.98206 | -3.46545 | 37030 ft | 442 kts | 165° |
| 2026-05-04 13:20 | 49.92265 | -3.44036 | 37019 ft | 442 kts | 165° |
| 2026-05-04 13:20 | 49.86338 | -3.41505 | 37018 ft | 442 kts | 165° |
| 2026-05-04 13:21 | 49.80423 | -3.38934 | 37020 ft | 442 kts | 165° |
| 2026-05-04 13:21 | 49.74505 | -3.36347 | 37019 ft | 442 kts | 165° |
| 2026-05-04 13:22 | 49.68591 | -3.33764 | 37021 ft | 441 kts | 165° |
| 2026-05-04 13:22 | 49.62686 | -3.31191 | 37016 ft | 441 kts | 165° |
| 2026-05-04 13:23 | 49.56780 | -3.28626 | 37015 ft | 441 kts | 165° |
| 2026-05-04 13:23 | 49.50878 | -3.26070 | 37013 ft | 440 kts | 165° |
| 2026-05-04 13:24 | 49.45974 | -3.23950 | 37019 ft | 440 kts | 165° |
| 2026-05-04 13:24 | 49.40083 | -3.21410 | 37012 ft | 440 kts | 165° |
| 2026-05-04 13:25 | 49.31254 | -3.17615 | 37007 ft | 439 kts | 165° |
| 2026-05-04 13:25 | 49.25372 | -3.15095 | 37008 ft | 438 kts | 165° |
| 2026-05-04 13:26 | 49.19505 | -3.12587 | 37005 ft | 438 kts | 165° |
| 2026-05-04 13:26 | 49.13638 | -3.10086 | 37005 ft | 438 kts | 165° |
| 2026-05-04 13:27 | 49.07772 | -3.07591 | 37000 ft | 437 kts | 165° |
| 2026-05-04 13:27 | 49.01955 | -3.05122 | 36999 ft | 437 kts | 165° |
| 2026-05-04 13:28 | 48.96140 | -3.02661 | 37017 ft | 438 kts | 165° |
| 2026-05-04 13:28 | 48.90203 | -3.00155 | 37017 ft | 442 kts | 165° |
| 2026-05-04 13:29 | 48.84303 | -2.97670 | 36992 ft | 443 kts | 165° |
| 2026-05-04 13:29 | 48.78366 | -2.95175 | 36992 ft | 442 kts | 165° |
| 2026-05-04 13:30 | 48.72454 | -2.92697 | 36994 ft | 440 kts | 165° |
| 2026-05-04 13:30 | 48.66566 | -2.90235 | 36989 ft | 438 kts | 165° |
| 2026-05-04 13:31 | 48.63625 | -2.89007 | 36752 ft | 441 kts | 165° |
| 2026-05-04 13:31 | 48.60658 | -2.87771 | 36340 ft | 442 kts | 165° |
| 2026-05-04 13:31 | 48.57707 | -2.86542 | 35942 ft | 437 kts | 165° |
| 2026-05-04 13:31 | 48.54886 | -2.85369 | 35494 ft | 436 kts | 165° |
| 2026-05-04 13:32 | 48.52232 | -2.84266 | 35035 ft | 436 kts | 165° |
| 2026-05-04 13:32 | 48.49308 | -2.83053 | 34489 ft | 435 kts | 165° |
| 2026-05-04 13:32 | 48.46396 | -2.81846 | 33950 ft | 434 kts | 165° |
| 2026-05-04 13:32 | 48.43502 | -2.80648 | 33470 ft | 429 kts | 165° |
| 2026-05-04 13:33 | 48.40649 | -2.79468 | 33114 ft | 422 kts | 165° |
| 2026-05-04 13:33 | 48.37846 | -2.78310 | 32722 ft | 416 kts | 165° |
| 2026-05-04 13:33 | 48.35068 | -2.77164 | 32293 ft | 411 kts | 165° |
| 2026-05-04 13:33 | 48.32328 | -2.76035 | 31880 ft | 406 kts | 165° |
| 2026-05-04 13:34 | 48.29619 | -2.74920 | 31491 ft | 401 kts | 166° |
| 2026-05-04 13:34 | 48.26949 | -2.73822 | 31099 ft | 396 kts | 166° |
| 2026-05-04 13:34 | 48.24310 | -2.72738 | 30733 ft | 391 kts | 166° |
| 2026-05-04 13:34 | 48.21699 | -2.71667 | 30364 ft | 387 kts | 166° |
| 2026-05-04 13:35 | 48.19117 | -2.70609 | 29983 ft | 383 kts | 166° |
| 2026-05-04 13:35 | 48.13975 | -2.68506 | 28578 ft | 385 kts | 166° |
| 2026-05-04 13:35 | 48.11417 | -2.67461 | 27881 ft | 385 kts | 166° |
| 2026-05-04 13:36 | 48.08808 | -2.66397 | 27354 ft | 382 kts | 166° |
| 2026-05-04 13:36 | 48.06295 | -2.65372 | 26888 ft | 378 kts | 166° |
| 2026-05-04 13:36 | 48.03787 | -2.64350 | 26402 ft | 374 kts | 166° |
| 2026-05-04 13:36 | 48.01282 | -2.63330 | 25896 ft | 371 kts | 166° |
| 2026-05-04 13:37 | 47.98797 | -2.62320 | 25429 ft | 369 kts | 166° |
| 2026-05-04 13:37 | 47.96326 | -2.61317 | 25026 ft | 366 kts | 166° |
| 2026-05-04 13:37 | 47.93884 | -2.60326 | 24778 ft | 359 kts | 166° |
| 2026-05-04 13:37 | 47.91600 | -2.59399 | 24606 ft | 350 kts | 166° |
| 2026-05-04 13:38 | 47.89261 | -2.58452 | 24218 ft | 347 kts | 166° |
| 2026-05-04 13:38 | 47.86931 | -2.57510 | 23760 ft | 346 kts | 166° |
| 2026-05-04 13:38 | 47.84614 | -2.56574 | 23306 ft | 345 kts | 166° |
| 2026-05-04 13:38 | 47.82307 | -2.55642 | 22834 ft | 342 kts | 166° |
| 2026-05-04 13:39 | 47.80011 | -2.54716 | 22352 ft | 341 kts | 166° |
| 2026-05-04 13:39 | 47.77726 | -2.53795 | 21865 ft | 340 kts | 166° |
| 2026-05-04 13:39 | 47.75449 | -2.52878 | 21388 ft | 339 kts | 165° |
| 2026-05-04 13:39 | 47.73175 | -2.51961 | 20888 ft | 338 kts | 165° |
| 2026-05-04 13:40 | 47.71041 | -2.50526 | 20367 ft | 341 kts | 146° |
| 2026-05-04 13:40 | 47.69367 | -2.48030 | 19936 ft | 344 kts | 128° |
| 2026-05-04 13:40 | 47.68224 | -2.44913 | 19519 ft | 346 kts | 112° |
| 2026-05-04 13:40 | 47.67725 | -2.41412 | 19110 ft | 349 kts | 101° |
| 2026-05-04 13:41 | 47.67438 | -2.37849 | 18723 ft | 347 kts | 99° |
| 2026-05-04 13:41 | 47.67191 | -2.34296 | 18323 ft | 346 kts | 98° |
| 2026-05-04 13:41 | 47.66945 | -2.30754 | 17891 ft | 344 kts | 99° |
| 2026-05-04 13:42 | 47.66426 | -2.23761 | 17039 ft | 339 kts | 99° |
| 2026-05-04 13:42 | 47.66159 | -2.20328 | 16796 ft | 332 kts | 99° |
| 2026-05-04 13:42 | 47.65893 | -2.16975 | 16476 ft | 331 kts | 99° |
| 2026-05-04 13:42 | 47.65560 | -2.13618 | 16201 ft | 326 kts | 109° |
| 2026-05-04 13:43 | 47.64444 | -2.10778 | 16017 ft | 320 kts | 138° |
| 2026-05-04 13:43 | 47.62615 | -2.08858 | 16002 ft | 317 kts | 154° |
| 2026-05-04 13:43 | 47.60568 | -2.07786 | 15642 ft | 318 kts | 165° |
| 2026-05-04 13:43 | 47.58432 | -2.06980 | 15183 ft | 319 kts | 166° |
| 2026-05-04 13:44 | 47.56262 | -2.06214 | 14708 ft | 321 kts | 166° |
| 2026-05-04 13:44 | 47.54087 | -2.05451 | 14297 ft | 321 kts | 166° |
| 2026-05-04 13:44 | 47.51922 | -2.04683 | 13924 ft | 319 kts | 166° |
| 2026-05-04 13:44 | 47.49771 | -2.03910 | 13529 ft | 318 kts | 166° |
| 2026-05-04 13:45 | 47.47635 | -2.03135 | 13120 ft | 316 kts | 166° |
| 2026-05-04 13:45 | 47.45508 | -2.02358 | 12818 ft | 312 kts | 166° |
| 2026-05-04 13:45 | 47.43438 | -2.01599 | 12730 ft | 301 kts | 166° |
| 2026-05-04 13:45 | 47.41442 | -2.00866 | 12609 ft | 292 kts | 166° |
| 2026-05-04 13:46 | 47.39496 | -2.00150 | 12353 ft | 288 kts | 166° |
| 2026-05-04 13:46 | 47.37561 | -1.99438 | 12010 ft | 287 kts | 166° |
| 2026-05-04 13:46 | 47.35617 | -1.98721 | 11661 ft | 287 kts | 166° |
| 2026-05-04 13:46 | 47.33676 | -1.97997 | 11323 ft | 287 kts | 166° |
| 2026-05-04 13:47 | 47.31747 | -1.97270 | 11012 ft | 286 kts | 166° |
| 2026-05-04 13:47 | 47.29827 | -1.96544 | 10715 ft | 284 kts | 166° |
| 2026-05-04 13:47 | 47.27920 | -1.95822 | 10393 ft | 283 kts | 166° |
| 2026-05-04 13:47 | 47.26008 | -1.95096 | 10076 ft | 283 kts | 166° |
| 2026-05-04 13:48 | 47.24114 | -1.94375 | 9793 ft | 280 kts | 166° |
| 2026-05-04 13:48 | 47.22228 | -1.93658 | 9458 ft | 280 kts | 165° |
| 2026-05-04 13:48 | 47.20346 | -1.92947 | 9109 ft | 280 kts | 165° |
| 2026-05-04 13:48 | 47.18471 | -1.92243 | 8852 ft | 276 kts | 165° |
| 2026-05-04 13:49 | 47.16614 | -1.91550 | 8480 ft | 277 kts | 165° |
| 2026-05-04 13:49 | 47.14741 | -1.90856 | 8202 ft | 278 kts | 165° |
| 2026-05-04 13:49 | 47.12872 | -1.90173 | 8190 ft | 276 kts | 166° |
| 2026-05-04 13:49 | 47.10985 | -1.89483 | 7770 ft | 283 kts | 165° |
| 2026-05-04 13:50 | 47.09071 | -1.88788 | 7353 ft | 284 kts | 166° |
| 2026-05-04 13:50 | 47.07157 | -1.88102 | 6885 ft | 282 kts | 165° |
| 2026-05-04 13:50 | 47.05278 | -1.87433 | 6566 ft | 273 kts | 165° |
| 2026-05-04 13:50 | 47.03450 | -1.86791 | 6231 ft | 266 kts | 165° |
| 2026-05-04 13:51 | 47.01668 | -1.86183 | 5887 ft | 260 kts | 165° |
| 2026-05-04 13:51 | 46.99946 | -1.85601 | 5551 ft | 255 kts | 166° |
| 2026-05-04 13:51 | 46.98233 | -1.85019 | 5300 ft | 251 kts | 166° |
| 2026-05-04 13:51 | 46.96557 | -1.84443 | 5058 ft | 243 kts | 166° |
| 2026-05-04 13:52 | 46.93519 | -1.83116 | 4568 ft | 212 kts | 141° |
| 2026-05-04 13:52 | 46.92787 | -1.81440 | 4444 ft | 191 kts | 95° |
| 2026-05-04 13:52 | 46.93106 | -1.79719 | 4320 ft | 175 kts | 46° |
| 2026-05-04 13:53 | 46.94005 | -1.78519 | 4261 ft | 177 kts | 42° |
| 2026-05-04 13:53 | 46.94948 | -1.77344 | 4133 ft | 177 kts | 36° |
| 2026-05-04 13:53 | 46.95932 | -1.76315 | 4139 ft | 175 kts | 34° |
| 2026-05-04 13:54 | 46.98032 | -1.74371 | 3660 ft | 175 kts | 28° |
| 2026-05-04 13:54 | 46.99073 | -1.73544 | 3437 ft | 171 kts | 27° |
| 2026-05-04 13:54 | 47.01139 | -1.71949 | 2977 ft | 166 kts | 26° |
| 2026-05-04 13:55 | 47.02183 | -1.71149 | 2775 ft | 168 kts | 26° |
| 2026-05-04 13:55 | 47.04244 | -1.69566 | 2309 ft | 167 kts | 25° |
| 2026-05-04 13:55 | 47.05280 | -1.68772 | 2085 ft | 168 kts | 26° |
| 2026-05-04 13:56 | 47.06325 | -1.67970 | 1847 ft | 170 kts | 25° |
| 2026-05-04 13:56 | 47.07371 | -1.67167 | 1620 ft | 170 kts | 24° |
| 2026-05-04 13:56 | 47.09367 | -1.65635 | 1225 ft | 153 kts | 25° |
| 2026-05-04 13:57 | 47.10302 | -1.64918 | 968 ft | 148 kts | 24° |
| 2026-05-04 13:57 | 47.11198 | -1.64231 | 790 ft | 144 kts | 24° |
| 2026-05-04 13:58 | 47.13818 | -1.62207 | 209 ft | 141 kts | 26° |
| 2026-05-04 13:58 | 47.15323 | -1.61068 | 88 ft | 69 kts | 28° |
| 2026-05-04 13:58 | 47.15626 | -1.60838 | 87 ft | 28 kts | 27° |
| 2026-05-04 13:59 | 47.15679 | -1.60764 | 84 ft | 9 kts | 85° |
| 2026-05-04 13:59 | 47.15654 | -1.60682 | 87 ft | 9 kts | 124° |
| 2026-05-04 13:59 | 47.15586 | -1.60539 | 93 ft | 8 kts | 127° |
| 2026-05-04 14:00 | 47.15553 | -1.60472 | 93 ft | 8 kts | 126° |
| 2026-05-04 14:00 | 47.15527 | -1.60326 | 90 ft | 9 kts | 62° |
| 2026-05-04 14:00 | 47.15563 | -1.60281 | 89 ft | 5 kts | 22° |
| 2026-05-04 14:01 | 47.15573 | -1.60277 | 90 ft | 0 kts | 16° |
| 2026-05-04 14:01 | 47.15577 | -1.60275 | 90 ft | 2 kts | 14° |
| 2026-05-04 14:01 | 47.15649 | -1.60251 | 93 ft | 6 kts | 35° |
| 2026-05-04 14:02 | 47.15674 | -1.60225 | 91 ft | 2 kts | 35° |
| 2026-05-04 14:02 | 47.15675 | -1.60224 | 91 ft | 0 kts | 35° |